Portada
METAR-TAF:

METAR-TAF

Aeropuertos :

Sukkur, Pakistán

latitud: 27-43-19N, longitud: 068-47-31E, altitud: 60 m

Observación

El informe se hizo hace 1 hora y 14 minutos, a las 10:00 UTC
Viento 6 kt del noreste
Temperatura 33°C
Humedad 32%
Presión 1007 hPa
Visibilidad: 4000 m
calima

METAR: OPSK 071000Z 05006KT 4000 HZ NSC 33/14 Q1007 NOSIG

Hora: 16:14 (11:14 UTC)

Pronóstico

El informe se hizo hace 7 horas y 14 minutos, a las 04:00 UTC
Pronóstico válido del 07 a las 06 UTC al 08 a las 06 UTC
Viento 5 kt del este-noreste con ráfagas de 15 kt
Visibilidad: 4000 m
calima
A partir de las UTC
Viento 7 kt del noreste
Visibilidad: 3000 m
calima
Temporalmente
del 08 a las 00 UTC al 08 a las 04 UTC
Viento 7 kt del norte-noreste
Visibilidad: 2000 m
calima

TAF: OPSK 070400Z 0706/0806 06005G15KT 4000 HZ NSC FM 071800 05007KT 3000 HZ NSC TEMPO 0800/0804 02007KT 2000 HZ NSC

Observaciones y pronósticos meteorológicos de más de 4000 aeropuertos (mensajes METAR y TAF).

Los puntos amarillos y rojos representan las estaciones disponibles.

Ponga el ratón en el punto deseado para ver el nombre de la estación.

Haga clic para ver las observaciones y los pronósticos meteorológicos.

Para cambiar el mapa : haga clic en los botones verdes con una cruz de color negro para hacer un zoom, en el botón verde con un guión para alejar o en las flechas verdes para mapas adyacentes.


METAR-TAF: